sensor_id;sensor_type;location;lat;lon;timestamp;P1;durP1;ratioP1;P2;durP2;ratioP2
9809;SDS011;4944;52.514;13.192;2023-07-16T00:02:00;3.05;;;2.70;;
9809;SDS011;4944;52.514;13.192;2023-07-16T00:04:27;2.50;;;2.30;;
9809;SDS011;4944;52.514;13.192;2023-07-16T00:06:53;4.82;;;2.80;;
9809;SDS011;4944;52.514;13.192;2023-07-16T00:09:20;2.70;;;2.50;;
9809;SDS011;4944;52.514;13.192;2023-07-16T00:11:47;3.15;;;2.85;;
9809;SDS011;4944;52.514;13.192;2023-07-16T00:14:15;2.67;;;2.47;;
9809;SDS011;4944;52.514;13.192;2023-07-16T00:16:43;6.47;;;3.17;;
9809;SDS011;4944;52.514;13.192;2023-07-16T00:19:10;2.50;;;2.30;;
9809;SDS011;4944;52.514;13.192;2023-07-16T00:21:37;2.83;;;2.63;;
9809;SDS011;4944;52.514;13.192;2023-07-16T00:24:04;5.40;;;2.90;;
9809;SDS011;4944;52.514;13.192;2023-07-16T00:26:31;2.42;;;2.33;;
9809;SDS011;4944;52.514;13.192;2023-07-16T00:28:58;2.80;;;2.60;;
9809;SDS011;4944;52.514;13.192;2023-07-16T00:31:26;3.13;;;2.72;;
9809;SDS011;4944;52.514;13.192;2023-07-16T00:33:53;2.85;;;2.65;;
9809;SDS011;4944;52.514;13.192;2023-07-16T00:36:20;2.60;;;2.40;;
9809;SDS011;4944;52.514;13.192;2023-07-16T00:38:47;3.67;;;2.83;;
9809;SDS011;4944;52.514;13.192;2023-07-16T00:41:15;2.88;;;2.60;;
9809;SDS011;4944;52.514;13.192;2023-07-16T00:43:42;3.50;;;3.20;;
9809;SDS011;4944;52.514;13.192;2023-07-16T00:46:09;3.55;;;3.10;;
9809;SDS011;4944;52.514;13.192;2023-07-16T00:48:39;4.13;;;3.05;;
9809;SDS011;4944;52.514;13.192;2023-07-16T00:51:07;4.65;;;2.95;;
9809;SDS011;4944;52.514;13.192;2023-07-16T00:53:34;4.70;;;3.22;;
9809;SDS011;4944;52.514;13.192;2023-07-16T00:56:01;3.53;;;3.22;;
9809;SDS011;4944;52.514;13.192;2023-07-16T00:58:28;3.38;;;3.13;;
9809;SDS011;4944;52.514;13.192;2023-07-16T01:00:55;3.42;;;3.22;;
9809;SDS011;4944;52.514;13.192;2023-07-16T01:03:21;3.33;;;2.88;;
9809;SDS011;4944;52.514;13.192;2023-07-16T01:06:02;3.15;;;2.95;;
9809;SDS011;4944;52.514;13.192;2023-07-16T01:08:35;3.05;;;2.85;;
9809;SDS011;4944;52.514;13.192;2023-07-16T01:11:07;3.47;;;3.17;;
9809;SDS011;4944;52.514;13.192;2023-07-16T01:13:35;3.22;;;2.92;;
9809;SDS011;4944;52.514;13.192;2023-07-16T01:16:03;3.63;;;3.33;;
9809;SDS011;4944;52.514;13.192;2023-07-16T01:18:30;7.85;;;3.65;;
9809;SDS011;4944;52.514;13.192;2023-07-16T01:20:58;4.13;;;3.83;;
9809;SDS011;4944;52.514;13.192;2023-07-16T01:23:35;3.80;;;3.50;;
9809;SDS011;4944;52.514;13.192;2023-07-16T01:26:17;5.78;;;5.00;;
9809;SDS011;4944;52.514;13.192;2023-07-16T01:31:58;5.47;;;4.07;;
9809;SDS011;4944;52.514;13.192;2023-07-16T01:34:26;5.22;;;4.00;;
9809;SDS011;4944;52.514;13.192;2023-07-16T01:36:55;4.38;;;3.90;;
9809;SDS011;4944;52.514;13.192;2023-07-16T01:39:22;4.38;;;4.00;;
9809;SDS011;4944;52.514;13.192;2023-07-16T01:41:49;4.20;;;3.80;;
9809;SDS011;4944;52.514;13.192;2023-07-16T01:44:16;3.80;;;3.58;;
9809;SDS011;4944;52.514;13.192;2023-07-16T01:46:45;3.95;;;3.55;;
9809;SDS011;4944;52.514;13.192;2023-07-16T01:49:20;5.93;;;3.97;;
9809;SDS011;4944;52.514;13.192;2023-07-16T01:51:46;4.43;;;4.00;;
9809;SDS011;4944;52.514;13.192;2023-07-16T01:54:13;4.32;;;3.92;;
9809;SDS011;4944;52.514;13.192;2023-07-16T01:56:40;4.15;;;3.58;;
9809;SDS011;4944;52.514;13.192;2023-07-16T01:59:07;5.75;;;4.03;;
9809;SDS011;4944;52.514;13.192;2023-07-16T02:01:34;4.45;;;4.15;;
9809;SDS011;4944;52.514;13.192;2023-07-16T02:04:02;4.72;;;3.92;;
9809;SDS011;4944;52.514;13.192;2023-07-16T02:06:29;3.65;;;3.35;;
9809;SDS011;4944;52.514;13.192;2023-07-16T02:08:56;3.58;;;3.28;;
9809;SDS011;4944;52.514;13.192;2023-07-16T02:11:23;6.22;;;3.42;;
9809;SDS011;4944;52.514;13.192;2023-07-16T02:13:50;3.13;;;2.92;;
9809;SDS011;4944;52.514;13.192;2023-07-16T02:16:17;4.00;;;3.45;;
9809;SDS011;4944;52.514;13.192;2023-07-16T02:18:43;3.50;;;3.20;;
9809;SDS011;4944;52.514;13.192;2023-07-16T02:21:12;4.40;;;4.07;;
9809;SDS011;4944;52.514;13.192;2023-07-16T02:23:39;4.57;;;3.90;;
9809;SDS011;4944;52.514;13.192;2023-07-16T02:26:05;4.45;;;4.13;;
9809;SDS011;4944;52.514;13.192;2023-07-16T02:28:32;5.40;;;4.15;;
9809;SDS011;4944;52.514;13.192;2023-07-16T02:30:59;4.35;;;3.95;;
9809;SDS011;4944;52.514;13.192;2023-07-16T02:33:26;3.85;;;3.55;;
9809;SDS011;4944;52.514;13.192;2023-07-16T02:35:53;4.20;;;3.58;;
9809;SDS011;4944;52.514;13.192;2023-07-16T02:38:21;4.72;;;3.80;;
9809;SDS011;4944;52.514;13.192;2023-07-16T02:40:48;3.53;;;3.22;;
9809;SDS011;4944;52.514;13.192;2023-07-16T02:43:15;3.22;;;3.00;;
9809;SDS011;4944;52.514;13.192;2023-07-16T02:45:42;3.63;;;3.42;;
9809;SDS011;4944;52.514;13.192;2023-07-16T02:48:08;4.55;;;3.28;;
9809;SDS011;4944;52.514;13.192;2023-07-16T02:50:36;3.50;;;3.22;;
9809;SDS011;4944;52.514;13.192;2023-07-16T02:53:03;4.68;;;3.30;;
9809;SDS011;4944;52.514;13.192;2023-07-16T02:55:32;3.05;;;2.85;;
9809;SDS011;4944;52.514;13.192;2023-07-16T02:58:00;4.10;;;3.05;;
9809;SDS011;4944;52.514;13.192;2023-07-16T03:00:29;3.67;;;3.45;;
9809;SDS011;4944;52.514;13.192;2023-07-16T03:02:56;3.92;;;3.47;;
9809;SDS011;4944;52.514;13.192;2023-07-16T03:05:24;3.20;;;3.00;;
9809;SDS011;4944;52.514;13.192;2023-07-16T03:07:51;3.53;;;3.10;;
9809;SDS011;4944;52.514;13.192;2023-07-16T03:10:20;3.20;;;3.00;;
9809;SDS011;4944;52.514;13.192;2023-07-16T03:12:48;3.13;;;2.92;;
9809;SDS011;4944;52.514;13.192;2023-07-16T03:15:15;3.03;;;2.83;;
9809;SDS011;4944;52.514;13.192;2023-07-16T03:17:42;3.10;;;2.90;;
9809;SDS011;4944;52.514;13.192;2023-07-16T03:20:09;5.43;;;3.35;;
9809;SDS011;4944;52.514;13.192;2023-07-16T03:22:38;3.33;;;3.05;;
9809;SDS011;4944;52.514;13.192;2023-07-16T03:25:05;3.60;;;3.17;;
9809;SDS011;4944;52.514;13.192;2023-07-16T03:27:33;3.95;;;3.60;;
9809;SDS011;4944;52.514;13.192;2023-07-16T03:30:01;3.47;;;3.28;;
9809;SDS011;4944;52.514;13.192;2023-07-16T03:32:29;5.07;;;3.35;;
9809;SDS011;4944;52.514;13.192;2023-07-16T03:34:56;3.22;;;3.00;;
9809;SDS011;4944;52.514;13.192;2023-07-16T03:37:23;4.32;;;3.13;;
9809;SDS011;4944;52.514;13.192;2023-07-16T03:39:49;3.38;;;2.70;;
9809;SDS011;4944;52.514;13.192;2023-07-16T03:42:17;3.20;;;3.00;;
9809;SDS011;4944;52.514;13.192;2023-07-16T03:44:44;3.78;;;2.85;;
9809;SDS011;4944;52.514;13.192;2023-07-16T03:47:12;3.00;;;2.55;;
9809;SDS011;4944;52.514;13.192;2023-07-16T03:49:42;2.80;;;2.65;;
9809;SDS011;4944;52.514;13.192;2023-07-16T03:52:09;2.65;;;2.45;;
9809;SDS011;4944;52.514;13.192;2023-07-16T03:54:36;2.58;;;2.38;;
9809;SDS011;4944;52.514;13.192;2023-07-16T03:57:03;2.63;;;2.42;;
9809;SDS011;4944;52.514;13.192;2023-07-16T03:59:30;3.45;;;3.08;;
9809;SDS011;4944;52.514;13.192;2023-07-16T04:01:57;3.08;;;2.88;;
9809;SDS011;4944;52.514;13.192;2023-07-16T04:04:26;3.70;;;3.03;;
9809;SDS011;4944;52.514;13.192;2023-07-16T04:06:53;3.33;;;2.92;;
9809;SDS011;4944;52.514;13.192;2023-07-16T04:09:21;3.17;;;2.97;;
9809;SDS011;4944;52.514;13.192;2023-07-16T04:11:48;3.17;;;2.95;;
9809;SDS011;4944;52.514;13.192;2023-07-16T04:14:15;4.38;;;2.92;;
9809;SDS011;4944;52.514;13.192;2023-07-16T04:16:42;2.92;;;2.70;;
9809;SDS011;4944;52.514;13.192;2023-07-16T04:19:09;2.97;;;2.80;;
9809;SDS011;4944;52.514;13.192;2023-07-16T04:21:40;3.20;;;3.00;;
9809;SDS011;4944;52.514;13.192;2023-07-16T04:24:07;2.90;;;2.70;;
9809;SDS011;4944;52.514;13.192;2023-07-16T04:26:34;2.80;;;2.60;;
9809;SDS011;4944;52.514;13.192;2023-07-16T04:29:01;2.70;;;2.50;;
9809;SDS011;4944;52.514;13.192;2023-07-16T04:31:28;3.05;;;2.67;;
9809;SDS011;4944;52.514;13.192;2023-07-16T04:33:55;3.88;;;2.85;;
9809;SDS011;4944;52.514;13.192;2023-07-16T04:36:21;3.88;;;2.97;;
9809;SDS011;4944;52.514;13.192;2023-07-16T04:38:51;3.50;;;3.20;;
9809;SDS011;4944;52.514;13.192;2023-07-16T04:41:18;2.72;;;2.63;;
9809;SDS011;4944;52.514;13.192;2023-07-16T04:43:45;4.10;;;3.20;;
9809;SDS011;4944;52.514;13.192;2023-07-16T04:46:12;3.08;;;2.88;;
9809;SDS011;4944;52.514;13.192;2023-07-16T04:48:40;3.40;;;3.00;;
9809;SDS011;4944;52.514;13.192;2023-07-16T04:51:07;3.50;;;3.20;;
9809;SDS011;4944;52.514;13.192;2023-07-16T04:53:34;3.95;;;3.17;;
9809;SDS011;4944;52.514;13.192;2023-07-16T04:56:02;4.00;;;2.83;;
9809;SDS011;4944;52.514;13.192;2023-07-16T04:58:30;3.22;;;2.92;;
9809;SDS011;4944;52.514;13.192;2023-07-16T05:00:58;3.10;;;2.90;;
9809;SDS011;4944;52.514;13.192;2023-07-16T05:03:25;3.58;;;3.28;;
9809;SDS011;4944;52.514;13.192;2023-07-16T05:05:52;3.22;;;3.03;;
9809;SDS011;4944;52.514;13.192;2023-07-16T05:08:19;3.30;;;3.10;;
9809;SDS011;4944;52.514;13.192;2023-07-16T05:10:46;2.85;;;2.65;;
9809;SDS011;4944;52.514;13.192;2023-07-16T05:13:14;4.40;;;3.08;;
9809;SDS011;4944;52.514;13.192;2023-07-16T05:15:43;3.17;;;2.97;;
9809;SDS011;4944;52.514;13.192;2023-07-16T05:18:09;3.35;;;3.10;;
9809;SDS011;4944;52.514;13.192;2023-07-16T05:20:36;3.47;;;3.20;;
9809;SDS011;4944;52.514;13.192;2023-07-16T05:23:03;3.50;;;3.20;;
9809;SDS011;4944;52.514;13.192;2023-07-16T05:25:30;4.38;;;3.17;;
9809;SDS011;4944;52.514;13.192;2023-07-16T05:27:57;3.53;;;3.28;;
9809;SDS011;4944;52.514;13.192;2023-07-16T05:30:25;4.30;;;3.97;;
9809;SDS011;4944;52.514;13.192;2023-07-16T05:32:52;3.30;;;3.10;;
9809;SDS011;4944;52.514;13.192;2023-07-16T05:35:19;3.60;;;3.30;;
9809;SDS011;4944;52.514;13.192;2023-07-16T05:37:46;3.70;;;3.40;;
9809;SDS011;4944;52.514;13.192;2023-07-16T05:40:13;4.00;;;3.20;;
9809;SDS011;4944;52.514;13.192;2023-07-16T05:42:40;3.55;;;3.25;;
9809;SDS011;4944;52.514;13.192;2023-07-16T05:45:07;3.58;;;3.28;;
9809;SDS011;4944;52.514;13.192;2023-07-16T05:47:38;3.30;;;3.10;;
9809;SDS011;4944;52.514;13.192;2023-07-16T05:50:06;3.38;;;3.08;;
9809;SDS011;4944;52.514;13.192;2023-07-16T05:52:34;3.97;;;3.63;;
9809;SDS011;4944;52.514;13.192;2023-07-16T05:55:00;3.57;;;3.07;;
9809;SDS011;4944;52.514;13.192;2023-07-16T05:57:27;3.90;;;3.40;;
9809;SDS011;4944;52.514;13.192;2023-07-16T05:59:54;3.88;;;3.58;;
9809;SDS011;4944;52.514;13.192;2023-07-16T06:02:21;6.17;;;3.70;;
9809;SDS011;4944;52.514;13.192;2023-07-16T06:04:49;3.70;;;3.40;;
9809;SDS011;4944;52.514;13.192;2023-07-16T06:07:16;3.60;;;3.30;;
9809;SDS011;4944;52.514;13.192;2023-07-16T06:09:43;3.92;;;3.42;;
9809;SDS011;4944;52.514;13.192;2023-07-16T06:12:10;4.47;;;3.35;;
9809;SDS011;4944;52.514;13.192;2023-07-16T06:14:37;3.13;;;2.97;;
9809;SDS011;4944;52.514;13.192;2023-07-16T06:17:04;3.63;;;3.33;;
9809;SDS011;4944;52.514;13.192;2023-07-16T06:19:31;3.45;;;3.15;;
9809;SDS011;4944;52.514;13.192;2023-07-16T06:21:59;3.83;;;2.85;;
9809;SDS011;4944;52.514;13.192;2023-07-16T06:24:26;3.42;;;3.22;;
9809;SDS011;4944;52.514;13.192;2023-07-16T06:26:53;3.15;;;2.95;;
9809;SDS011;4944;52.514;13.192;2023-07-16T06:29:20;3.17;;;2.95;;
9809;SDS011;4944;52.514;13.192;2023-07-16T06:31:53;2.90;;;2.75;;
9809;SDS011;4944;52.514;13.192;2023-07-16T06:34:21;3.33;;;3.07;;
9809;SDS011;4944;52.514;13.192;2023-07-16T06:36:48;3.50;;;3.30;;
9809;SDS011;4944;52.514;13.192;2023-07-16T06:39:17;3.55;;;3.25;;
9809;SDS011;4944;52.514;13.192;2023-07-16T06:41:43;3.75;;;2.88;;
9809;SDS011;4944;52.514;13.192;2023-07-16T06:44:10;3.17;;;2.95;;
9809;SDS011;4944;52.514;13.192;2023-07-16T06:46:37;4.53;;;2.90;;
9809;SDS011;4944;52.514;13.192;2023-07-16T06:49:05;3.05;;;2.75;;
9809;SDS011;4944;52.514;13.192;2023-07-16T06:51:32;3.10;;;2.88;;
9809;SDS011;4944;52.514;13.192;2023-07-16T06:53:59;3.03;;;2.80;;
9809;SDS011;4944;52.514;13.192;2023-07-16T06:56:27;3.17;;;2.90;;
9809;SDS011;4944;52.514;13.192;2023-07-16T06:58:54;3.35;;;3.03;;
9809;SDS011;4944;52.514;13.192;2023-07-16T07:01:20;3.47;;;2.72;;
9809;SDS011;4944;52.514;13.192;2023-07-16T07:03:47;3.40;;;2.95;;
9809;SDS011;4944;52.514;13.192;2023-07-16T07:06:14;3.13;;;2.92;;
9809;SDS011;4944;52.514;13.192;2023-07-16T07:08:41;3.03;;;2.83;;
9809;SDS011;4944;52.514;13.192;2023-07-16T07:11:08;3.90;;;2.85;;
9809;SDS011;4944;52.514;13.192;2023-07-16T07:13:36;3.65;;;3.28;;
9809;SDS011;4944;52.514;13.192;2023-07-16T07:16:03;3.20;;;3.00;;
9809;SDS011;4944;52.514;13.192;2023-07-16T07:18:30;2.83;;;2.65;;
9809;SDS011;4944;52.514;13.192;2023-07-16T07:20:57;3.72;;;3.00;;
9809;SDS011;4944;52.514;13.192;2023-07-16T07:23:24;2.88;;;2.67;;
9809;SDS011;4944;52.514;13.192;2023-07-16T07:25:51;2.90;;;2.70;;
9809;SDS011;4944;52.514;13.192;2023-07-16T07:28:19;3.00;;;2.80;;
9809;SDS011;4944;52.514;13.192;2023-07-16T07:30:47;2.95;;;2.72;;
9809;SDS011;4944;52.514;13.192;2023-07-16T07:33:14;2.92;;;2.50;;
9809;SDS011;4944;52.514;13.192;2023-07-16T07:35:41;2.95;;;2.75;;
9809;SDS011;4944;52.514;13.192;2023-07-16T07:38:08;2.70;;;2.45;;
9809;SDS011;4944;52.514;13.192;2023-07-16T07:40:35;3.03;;;2.47;;
9809;SDS011;4944;52.514;13.192;2023-07-16T07:43:02;4.30;;;2.47;;
9809;SDS011;4944;52.514;13.192;2023-07-16T07:45:29;2.55;;;2.33;;
9809;SDS011;4944;52.514;13.192;2023-07-16T07:47:57;2.03;;;1.92;;
9809;SDS011;4944;52.514;13.192;2023-07-16T07:50:24;2.47;;;1.80;;
9809;SDS011;4944;52.514;13.192;2023-07-16T07:52:50;1.95;;;1.85;;
9809;SDS011;4944;52.514;13.192;2023-07-16T07:55:17;2.20;;;2.00;;
9809;SDS011;4944;52.514;13.192;2023-07-16T07:57:44;1.90;;;1.80;;
9809;SDS011;4944;52.514;13.192;2023-07-16T08:00:12;2.08;;;1.92;;
9809;SDS011;4944;52.514;13.192;2023-07-16T08:02:40;2.40;;;2.20;;
9809;SDS011;4944;52.514;13.192;2023-07-16T08:05:08;2.42;;;1.90;;
9809;SDS011;4944;52.514;13.192;2023-07-16T08:07:35;1.90;;;1.80;;
9809;SDS011;4944;52.514;13.192;2023-07-16T08:10:03;2.40;;;2.20;;
9809;SDS011;4944;52.514;13.192;2023-07-16T08:12:30;4.55;;;3.05;;
9809;SDS011;4944;52.514;13.192;2023-07-16T08:14:57;2.03;;;1.92;;
9809;SDS011;4944;52.514;13.192;2023-07-16T08:17:24;2.45;;;2.28;;
9809;SDS011;4944;52.514;13.192;2023-07-16T08:19:51;2.25;;;2.00;;
9809;SDS011;4944;52.514;13.192;2023-07-16T08:22:19;3.03;;;2.17;;
9809;SDS011;4944;52.514;13.192;2023-07-16T08:24:46;2.22;;;1.85;;
9809;SDS011;4944;52.514;13.192;2023-07-16T08:27:13;2.38;;;2.17;;
9809;SDS011;4944;52.514;13.192;2023-07-16T08:29:40;2.08;;;1.98;;
9809;SDS011;4944;52.514;13.192;2023-07-16T08:32:07;2.20;;;2.10;;
9809;SDS011;4944;52.514;13.192;2023-07-16T08:34:34;2.40;;;2.20;;
9809;SDS011;4944;52.514;13.192;2023-07-16T08:37:01;2.33;;;2.15;;
9809;SDS011;4944;52.514;13.192;2023-07-16T08:39:30;2.58;;;2.38;;
9809;SDS011;4944;52.514;13.192;2023-07-16T08:41:56;2.20;;;2.00;;
9809;SDS011;4944;52.514;13.192;2023-07-16T08:44:24;2.63;;;2.42;;
9809;SDS011;4944;52.514;13.192;2023-07-16T08:46:51;3.00;;;2.28;;
9809;SDS011;4944;52.514;13.192;2023-07-16T08:49:18;2.55;;;2.30;;
9809;SDS011;4944;52.514;13.192;2023-07-16T08:51:48;2.33;;;2.13;;
9809;SDS011;4944;52.514;13.192;2023-07-16T08:54:15;3.30;;;2.20;;
9809;SDS011;4944;52.514;13.192;2023-07-16T08:56:46;3.63;;;2.20;;
9809;SDS011;4944;52.514;13.192;2023-07-16T08:59:14;4.47;;;2.10;;
9809;SDS011;4944;52.514;13.192;2023-07-16T09:01:41;4.65;;;2.30;;
9809;SDS011;4944;52.514;13.192;2023-07-16T09:04:09;2.30;;;2.10;;
9809;SDS011;4944;52.514;13.192;2023-07-16T09:06:35;2.58;;;1.90;;
9809;SDS011;4944;52.514;13.192;2023-07-16T09:09:02;3.88;;;2.10;;
9809;SDS011;4944;52.514;13.192;2023-07-16T09:11:29;2.30;;;2.15;;
9809;SDS011;4944;52.514;13.192;2023-07-16T09:13:57;4.43;;;1.95;;
9809;SDS011;4944;52.514;13.192;2023-07-16T09:16:31;1.85;;;1.70;;
9809;SDS011;4944;52.514;13.192;2023-07-16T09:19:04;3.53;;;2.10;;
9809;SDS011;4944;52.514;13.192;2023-07-16T09:21:32;2.05;;;1.75;;
9809;SDS011;4944;52.514;13.192;2023-07-16T09:24:05;3.28;;;1.90;;
9809;SDS011;4944;52.514;13.192;2023-07-16T09:26:36;1.70;;;1.60;;
9809;SDS011;4944;52.514;13.192;2023-07-16T09:29:06;2.97;;;2.00;;
9809;SDS011;4944;52.514;13.192;2023-07-16T09:31:33;3.13;;;2.13;;
9809;SDS011;4944;52.514;13.192;2023-07-16T09:34:00;4.22;;;1.85;;
9809;SDS011;4944;52.514;13.192;2023-07-16T09:36:27;4.45;;;1.80;;
9809;SDS011;4944;52.514;13.192;2023-07-16T09:38:54;1.52;;;1.50;;
9809;SDS011;4944;52.514;13.192;2023-07-16T09:41:22;2.72;;;2.00;;
9809;SDS011;4944;52.514;13.192;2023-07-16T09:43:49;2.50;;;1.75;;
9809;SDS011;4944;52.514;13.192;2023-07-16T09:46:17;3.25;;;1.90;;
9809;SDS011;4944;52.514;13.192;2023-07-16T09:48:44;3.15;;;2.10;;
9809;SDS011;4944;52.514;13.192;2023-07-16T09:51:11;2.00;;;1.90;;
9809;SDS011;4944;52.514;13.192;2023-07-16T09:53:39;2.00;;;1.90;;
9809;SDS011;4944;52.514;13.192;2023-07-16T09:56:11;2.88;;;2.05;;
9809;SDS011;4944;52.514;13.192;2023-07-16T09:58:39;2.10;;;1.90;;
9809;SDS011;4944;52.514;13.192;2023-07-16T10:01:07;2.35;;;2.08;;
9809;SDS011;4944;52.514;13.192;2023-07-16T10:03:36;3.85;;;2.10;;
9809;SDS011;4944;52.514;13.192;2023-07-16T10:06:14;3.25;;;2.05;;
9809;SDS011;4944;52.514;13.192;2023-07-16T10:08:40;2.08;;;1.85;;
9809;SDS011;4944;52.514;13.192;2023-07-16T10:11:15;2.20;;;2.00;;
9809;SDS011;4944;52.514;13.192;2023-07-16T10:13:43;2.20;;;1.83;;
9809;SDS011;4944;52.514;13.192;2023-07-16T10:16:19;2.30;;;2.10;;
9809;SDS011;4944;52.514;13.192;2023-07-16T10:18:51;2.25;;;2.08;;
9809;SDS011;4944;52.514;13.192;2023-07-16T10:21:22;2.58;;;1.90;;
9809;SDS011;4944;52.514;13.192;2023-07-16T10:23:56;5.47;;;2.45;;
9809;SDS011;4944;52.514;13.192;2023-07-16T10:26:26;3.20;;;2.10;;
9809;SDS011;4944;52.514;13.192;2023-07-16T10:28:54;2.58;;;2.10;;
9809;SDS011;4944;52.514;13.192;2023-07-16T10:31:22;2.75;;;2.22;;
9809;SDS011;4944;52.514;13.192;2023-07-16T10:34:01;2.88;;;2.20;;
9809;SDS011;4944;52.514;13.192;2023-07-16T10:36:29;4.32;;;2.20;;
9809;SDS011;4944;52.514;13.192;2023-07-16T10:39:02;4.03;;;2.42;;
9809;SDS011;4944;52.514;13.192;2023-07-16T10:41:30;3.90;;;2.15;;
9809;SDS011;4944;52.514;13.192;2023-07-16T10:43:57;1.90;;;1.80;;
9809;SDS011;4944;52.514;13.192;2023-07-16T10:46:25;4.32;;;2.42;;
9809;SDS011;4944;52.514;13.192;2023-07-16T10:48:52;3.47;;;1.92;;
9809;SDS011;4944;52.514;13.192;2023-07-16T10:51:25;3.50;;;2.08;;
9809;SDS011;4944;52.514;13.192;2023-07-16T10:53:54;2.25;;;2.05;;
9809;SDS011;4944;52.514;13.192;2023-07-16T10:56:21;2.05;;;1.95;;
9809;SDS011;4944;52.514;13.192;2023-07-16T10:58:48;4.43;;;2.20;;
9809;SDS011;4944;52.514;13.192;2023-07-16T11:01:15;4.70;;;2.15;;
9809;SDS011;4944;52.514;13.192;2023-07-16T11:03:42;2.47;;;1.85;;
9809;SDS011;4944;52.514;13.192;2023-07-16T11:06:09;2.50;;;2.00;;
9809;SDS011;4944;52.514;13.192;2023-07-16T11:08:38;1.83;;;1.73;;
9809;SDS011;4944;52.514;13.192;2023-07-16T11:11:05;2.70;;;2.22;;
9809;SDS011;4944;52.514;13.192;2023-07-16T11:13:32;2.15;;;1.83;;
9809;SDS011;4944;52.514;13.192;2023-07-16T11:16:06;3.58;;;1.92;;
9809;SDS011;4944;52.514;13.192;2023-07-16T11:18:33;2.40;;;2.20;;
9809;SDS011;4944;52.514;13.192;2023-07-16T11:21:00;2.65;;;2.22;;
9809;SDS011;4944;52.514;13.192;2023-07-16T11:23:27;2.35;;;2.10;;
9809;SDS011;4944;52.514;13.192;2023-07-16T11:25:55;3.00;;;2.10;;
9809;SDS011;4944;52.514;13.192;2023-07-16T11:28:22;2.55;;;2.03;;
9809;SDS011;4944;52.514;13.192;2023-07-16T11:30:49;2.00;;;1.90;;
9809;SDS011;4944;52.514;13.192;2023-07-16T11:33:16;2.08;;;1.80;;
9809;SDS011;4944;52.514;13.192;2023-07-16T11:35:43;3.20;;;1.98;;
9809;SDS011;4944;52.514;13.192;2023-07-16T11:38:10;4.53;;;2.17;;
9809;SDS011;4944;52.514;13.192;2023-07-16T11:40:37;2.00;;;1.80;;
9809;SDS011;4944;52.514;13.192;2023-07-16T11:43:09;1.70;;;1.60;;
9809;SDS011;4944;52.514;13.192;2023-07-16T11:45:37;2.67;;;1.70;;
9809;SDS011;4944;52.514;13.192;2023-07-16T11:48:04;2.50;;;1.98;;
9809;SDS011;4944;52.514;13.192;2023-07-16T11:50:31;3.05;;;1.98;;
9809;SDS011;4944;52.514;13.192;2023-07-16T11:52:59;4.43;;;1.85;;
9809;SDS011;4944;52.514;13.192;2023-07-16T11:55:27;2.28;;;2.08;;
9809;SDS011;4944;52.514;13.192;2023-07-16T11:57:54;1.90;;;1.80;;
9809;SDS011;4944;52.514;13.192;2023-07-16T12:00:23;3.40;;;1.60;;
9809;SDS011;4944;52.514;13.192;2023-07-16T12:02:50;2.17;;;1.90;;
9809;SDS011;4944;52.514;13.192;2023-07-16T12:05:17;2.05;;;1.83;;
9809;SDS011;4944;52.514;13.192;2023-07-16T12:07:44;2.80;;;1.73;;
9809;SDS011;4944;52.514;13.192;2023-07-16T12:10:11;2.97;;;2.20;;
9809;SDS011;4944;52.514;13.192;2023-07-16T12:12:38;5.28;;;2.05;;
9809;SDS011;4944;52.514;13.192;2023-07-16T12:15:05;2.13;;;1.92;;
9809;SDS011;4944;52.514;13.192;2023-07-16T12:17:34;2.13;;;2.03;;
9809;SDS011;4944;52.514;13.192;2023-07-16T12:20:01;1.90;;;1.80;;
9809;SDS011;4944;52.514;13.192;2023-07-16T12:22:29;5.40;;;2.10;;
9809;SDS011;4944;52.514;13.192;2023-07-16T12:24:56;2.17;;;1.67;;
9809;SDS011;4944;52.514;13.192;2023-07-16T12:27:23;3.17;;;2.00;;
9809;SDS011;4944;52.514;13.192;2023-07-16T12:29:50;2.05;;;1.95;;
9809;SDS011;4944;52.514;13.192;2023-07-16T12:32:17;2.97;;;2.08;;
9809;SDS011;4944;52.514;13.192;2023-07-16T12:34:46;5.43;;;2.30;;
9809;SDS011;4944;52.514;13.192;2023-07-16T12:37:13;3.20;;;2.30;;
9809;SDS011;4944;52.514;13.192;2023-07-16T12:39:42;2.58;;;2.00;;
9809;SDS011;4944;52.514;13.192;2023-07-16T12:42:08;2.22;;;2.13;;
9809;SDS011;4944;52.514;13.192;2023-07-16T12:44:35;2.83;;;2.00;;
9809;SDS011;4944;52.514;13.192;2023-07-16T12:47:02;1.88;;;1.77;;
9809;SDS011;4944;52.514;13.192;2023-07-16T12:49:30;3.90;;;2.00;;
9809;SDS011;4944;52.514;13.192;2023-07-16T12:51:58;2.17;;;1.88;;
9809;SDS011;4944;52.514;13.192;2023-07-16T12:54:25;2.00;;;1.80;;
9809;SDS011;4944;52.514;13.192;2023-07-16T12:56:52;2.78;;;2.08;;
9809;SDS011;4944;52.514;13.192;2023-07-16T12:59:19;1.88;;;1.77;;
9809;SDS011;4944;52.514;13.192;2023-07-16T13:01:46;2.70;;;1.88;;
9809;SDS011;4944;52.514;13.192;2023-07-16T13:04:12;2.20;;;1.80;;
9809;SDS011;4944;52.514;13.192;2023-07-16T13:06:39;2.35;;;1.80;;
9809;SDS011;4944;52.514;13.192;2023-07-16T13:09:08;2.80;;;1.92;;
9809;SDS011;4944;52.514;13.192;2023-07-16T13:11:35;2.38;;;1.67;;
9809;SDS011;4944;52.514;13.192;2023-07-16T13:14:03;2.80;;;1.85;;
9809;SDS011;4944;52.514;13.192;2023-07-16T13:16:30;4.68;;;2.38;;
9809;SDS011;4944;52.514;13.192;2023-07-16T13:18:57;4.05;;;2.10;;
9809;SDS011;4944;52.514;13.192;2023-07-16T13:21:23;4.20;;;1.95;;
9809;SDS011;4944;52.514;13.192;2023-07-16T13:23:50;4.57;;;2.10;;
9809;SDS011;4944;52.514;13.192;2023-07-16T13:26:19;4.03;;;2.22;;
9809;SDS011;4944;52.514;13.192;2023-07-16T13:28:46;4.47;;;2.15;;
9809;SDS011;4944;52.514;13.192;2023-07-16T13:31:13;2.10;;;2.00;;
9809;SDS011;4944;52.514;13.192;2023-07-16T13:33:40;3.05;;;1.63;;
9809;SDS011;4944;52.514;13.192;2023-07-16T13:36:06;5.45;;;1.85;;
9809;SDS011;4944;52.514;13.192;2023-07-16T13:38:33;2.95;;;1.83;;
9809;SDS011;4944;52.514;13.192;2023-07-16T13:41:00;4.38;;;1.98;;
9809;SDS011;4944;52.514;13.192;2023-07-16T13:43:28;2.45;;;1.98;;
9809;SDS011;4944;52.514;13.192;2023-07-16T13:45:55;3.00;;;1.88;;
9809;SDS011;4944;52.514;13.192;2023-07-16T13:48:22;3.55;;;1.75;;
9809;SDS011;4944;52.514;13.192;2023-07-16T13:50:49;2.03;;;1.80;;
9809;SDS011;4944;52.514;13.192;2023-07-16T13:53:16;3.40;;;1.92;;
9809;SDS011;4944;52.514;13.192;2023-07-16T13:55:42;7.95;;;2.13;;
9809;SDS011;4944;52.514;13.192;2023-07-16T13:58:09;4.05;;;1.90;;
9809;SDS011;4944;52.514;13.192;2023-07-16T14:00:38;3.72;;;2.28;;
9809;SDS011;4944;52.514;13.192;2023-07-16T14:03:05;4.25;;;1.98;;
9809;SDS011;4944;52.514;13.192;2023-07-16T14:05:32;2.45;;;1.63;;
9809;SDS011;4944;52.514;13.192;2023-07-16T14:08:03;2.50;;;1.85;;
9809;SDS011;4944;52.514;13.192;2023-07-16T14:10:30;2.75;;;1.90;;
9809;SDS011;4944;52.514;13.192;2023-07-16T14:12:57;1.92;;;1.77;;
9809;SDS011;4944;52.514;13.192;2023-07-16T14:15:24;3.55;;;1.85;;
9809;SDS011;4944;52.514;13.192;2023-07-16T14:17:52;5.88;;;1.95;;
9809;SDS011;4944;52.514;13.192;2023-07-16T14:20:19;2.92;;;1.80;;
9809;SDS011;4944;52.514;13.192;2023-07-16T14:22:46;2.47;;;2.28;;
9809;SDS011;4944;52.514;13.192;2023-07-16T14:25:13;5.78;;;3.55;;
9809;SDS011;4944;52.514;13.192;2023-07-16T14:27:40;5.10;;;2.78;;
9809;SDS011;4944;52.514;13.192;2023-07-16T14:30:08;3.53;;;2.10;;
9809;SDS011;4944;52.514;13.192;2023-07-16T14:32:36;1.95;;;1.80;;
9809;SDS011;4944;52.514;13.192;2023-07-16T14:35:04;2.78;;;1.90;;
9809;SDS011;4944;52.514;13.192;2023-07-16T14:37:32;2.22;;;1.60;;
9809;SDS011;4944;52.514;13.192;2023-07-16T14:39:59;2.20;;;2.00;;
9809;SDS011;4944;52.514;13.192;2023-07-16T14:42:25;1.88;;;1.70;;
9809;SDS011;4944;52.514;13.192;2023-07-16T14:44:52;1.95;;;1.80;;
9809;SDS011;4944;52.514;13.192;2023-07-16T14:47:19;2.88;;;1.80;;
9809;SDS011;4944;52.514;13.192;2023-07-16T14:49:46;6.55;;;1.85;;
9809;SDS011;4944;52.514;13.192;2023-07-16T14:52:14;5.80;;;1.90;;
9809;SDS011;4944;52.514;13.192;2023-07-16T14:54:41;4.88;;;2.15;;
9809;SDS011;4944;52.514;13.192;2023-07-16T14:57:08;2.17;;;1.80;;
9809;SDS011;4944;52.514;13.192;2023-07-16T14:59:35;2.92;;;2.05;;
9809;SDS011;4944;52.514;13.192;2023-07-16T15:02:03;2.47;;;2.08;;
9809;SDS011;4944;52.514;13.192;2023-07-16T15:04:30;2.92;;;1.75;;
9809;SDS011;4944;52.514;13.192;2023-07-16T15:06:57;5.35;;;1.58;;